KBBW/BBW METAR and TAF weather

Enter ICAO airport designator
Station Type Date Time Source
KBBW METAR 2019/10/15 07:53 UTC NOAA

KBBW 150753Z AUTO 33011KT 10SM CLR 09/01 A2995 RMK AO2 SLP132 T00890011


Station Type Date Time Source
KBBW Decoded METAR 2019/10/15 07:53 UTC NOAA

BROKEN BOW MUNICIPAL AIRPORT, NE, United States (KBBW) 41-26N 099-38W
Oct 15, 2019 - 03:53 AM EDT / 2019.10.15 0753 UTC
Wind: from the NNW (330 degrees) at 13 MPH (11 KT):0
Visibility: 10 mile(s):0
Sky conditions: clear
Temperature: 48.0 F (8.9 C)
Dew Point: 34.0 F (1.1 C)
Relative Humidity: 58%
Pressure (altimeter): 29.95 in. Hg (1014 hPa)
ob: KBBW 150753Z AUTO 33011KT 10SM CLR 09/01 A2995 RMK AO2 SLP132 T00890011
cycle: 8

Station Type Date Time Source
KBBW TAF UTC NOAA

Error!

Example: see airport list